createdAt,value
2019-02-25T02:33:39.795Z,65.90
2019-02-25T02:36:11.602Z,66.40
2019-02-25T02:38:40.102Z,66.00
2019-02-25T02:41:09.254Z,64.80
2019-02-25T02:43:38.397Z,65.70
2019-02-25T02:46:41.836Z,66.40
2019-02-25T02:49:11.336Z,66.60
2019-02-25T02:51:40.567Z,65.90
2019-02-25T02:54:09.699Z,65.00
2019-02-25T02:56:38.835Z,65.00
2019-02-25T02:59:07.999Z,65.20
2019-02-25T03:01:37.235Z,65.40
2019-02-25T03:04:06.350Z,65.10
2019-02-25T03:06:35.491Z,65.70
2019-02-25T03:09:06.910Z,64.80
2019-02-25T03:11:36.580Z,65.50
2019-02-25T03:14:05.687Z,65.50
2019-02-25T03:16:35.091Z,65.60
2019-02-25T03:19:04.305Z,65.30
2019-02-25T03:21:33.426Z,65.60
2019-02-25T03:24:02.560Z,65.90
2019-02-25T03:26:31.693Z,65.50
2019-02-25T03:29:02.768Z,65.70
2019-02-25T03:31:31.886Z,66.40
2019-02-25T03:34:00.992Z,66.70
2019-02-25T03:36:30.765Z,67.60
2019-02-25T03:38:59.913Z,68.00
2019-02-25T03:41:31.763Z,67.70
2019-02-25T03:44:00.883Z,68.10
2019-02-25T03:46:30.723Z,67.80
2019-02-25T03:48:59.858Z,68.20
2019-02-25T03:51:29.034Z,68.00
2019-02-25T03:53:58.148Z,68.30
2019-02-25T03:56:27.262Z,67.40
2019-02-25T03:58:56.703Z,67.30
2019-02-25T04:01:25.900Z,67.50
2019-02-25T04:03:55.059Z,67.30
2019-02-25T04:06:24.147Z,67.20
2019-02-25T04:08:53.304Z,67.20
2019-02-25T04:11:22.481Z,66.60
2019-02-25T04:13:51.628Z,66.20
2019-02-25T04:16:20.781Z,66.20
2019-02-25T04:18:49.894Z,65.80
2019-02-25T04:21:19.016Z,66.10
2019-02-25T04:23:48.480Z,65.10
2019-02-25T04:26:17.649Z,65.10
2019-02-25T04:28:46.753Z,65.70
2019-02-25T04:31:15.928Z,65.80
2019-02-25T04:33:45.082Z,65.60
2019-02-25T04:36:14.208Z,65.30
2019-02-25T04:38:43.281Z,66.10
2019-02-25T04:41:12.387Z,67.00
2019-02-25T04:43:41.483Z,67.40
2019-02-25T04:46:10.599Z,66.90
2019-02-25T04:48:39.683Z,67.00
2019-02-25T04:51:08.878Z,66.50
2019-02-25T04:53:37.982Z,66.50
2019-02-25T04:56:07.163Z,66.70
2019-02-25T04:58:36.260Z,67.20
2019-02-25T05:01:05.363Z,67.40
2019-02-25T05:03:34.479Z,67.40
2019-02-25T05:06:04.545Z,67.20
2019-02-25T05:08:33.639Z,67.50
2019-02-25T05:11:03.646Z,68.00
2019-02-25T05:13:32.733Z,69.10
2019-02-25T05:16:01.831Z,68.50
2019-02-25T05:18:30.940Z,68.50
2019-02-25T05:21:00.076Z,68.20
2019-02-25T05:23:29.791Z,68.20
2019-02-25T05:25:58.900Z,68.70
2019-02-25T05:28:28.005Z,69.00
2019-02-25T05:30:57.124Z,68.80
2019-02-25T05:33:26.284Z,68.70
2019-02-25T05:35:55.401Z,68.70
2019-02-25T05:38:24.488Z,67.70
2019-02-25T05:40:53.608Z,67.70
2019-02-25T05:43:23.751Z,67.80
2019-02-25T05:45:52.883Z,67.70
2019-02-25T05:48:21.977Z,67.50
2019-02-25T05:50:51.368Z,67.90
2019-02-25T05:53:20.479Z,67.30
2019-02-25T05:55:49.588Z,66.30
2019-02-25T05:58:18.691Z,67.00
2019-02-25T06:00:47.970Z,67.40
2019-02-25T06:03:18.079Z,67.90
2019-02-25T06:05:47.190Z,68.30
2019-02-25T06:08:16.292Z,68.70
2019-02-25T06:10:45.383Z,69.00
2019-02-25T06:13:14.495Z,68.80
2019-02-25T06:15:43.872Z,68.50
2019-02-25T06:18:12.962Z,68.70
2019-02-25T06:20:42.071Z,68.80
2019-02-25T06:23:11.164Z,68.50
2019-02-25T06:25:40.277Z,67.40
2019-02-25T06:28:09.365Z,67.40
2019-02-25T06:30:38.478Z,67.00
2019-02-25T06:33:07.568Z,67.40
2019-02-25T06:35:36.664Z,67.30
2019-02-25T06:38:05.779Z,67.30
2019-02-25T06:40:34.872Z,67.30
2019-02-25T06:43:04.487Z,67.00
2019-02-25T06:45:38.152Z,66.50
2019-02-25T06:48:07.264Z,66.00
2019-02-25T06:50:36.372Z,66.60
2019-02-25T06:53:05.465Z,67.00
2019-02-25T06:55:34.581Z,67.20
2019-02-25T06:58:03.674Z,67.20
2019-02-25T07:00:32.770Z,67.90
2019-02-25T07:03:02.953Z,68.50
2019-02-25T07:05:42.583Z,68.30
2019-02-25T07:08:16.223Z,69.00
2019-02-25T07:10:52.997Z,69.40
2019-02-25T07:13:29.540Z,69.70
2019-02-25T07:16:00.276Z,69.60
2019-02-25T07:18:49.072Z,69.40
2019-02-25T07:21:19.803Z,69.60
2019-02-25T07:23:59.343Z,69.60
2019-02-25T07:26:38.958Z,70.00
2019-02-25T07:29:21.552Z,69.80
2019-02-25T07:32:03.195Z,69.50
2019-02-25T07:34:33.949Z,69.10
2019-02-25T07:37:05.060Z,69.40
2019-02-25T07:39:35.814Z,68.30
2019-02-25T07:42:24.844Z,67.70
2019-02-25T07:44:58.180Z,68.70
2019-02-25T07:47:28.922Z,68.60
2019-02-25T07:50:08.676Z,68.90
2019-02-25T07:52:42.368Z,68.80
2019-02-25T07:55:15.791Z,68.10
2019-02-25T07:57:52.491Z,68.50
2019-02-25T08:00:41.525Z,67.30
2019-02-25T08:03:24.225Z,66.90
2019-02-25T08:06:12.070Z,65.80
2019-02-25T08:08:58.232Z,65.50
2019-02-25T08:11:40.947Z,65.10
2019-02-25T08:14:14.594Z,64.40
2019-02-25T08:16:45.339Z,64.20
2019-02-25T08:19:16.411Z,64.10
2019-02-25T08:21:55.910Z,63.40
2019-02-25T08:24:43.115Z,63.20
2019-02-25T08:27:13.871Z,62.70
2019-02-25T08:29:44.619Z,61.90
2019-02-25T08:32:24.247Z,61.40
2019-02-25T08:34:55.003Z,60.90
2019-02-25T08:37:46.819Z,60.70
2019-02-25T08:40:35.469Z,59.80
2019-02-25T08:43:10.708Z,59.40
2019-02-25T08:45:41.796Z,59.20
2019-02-25T08:48:12.531Z,59.40
2019-02-25T08:50:41.643Z,59.40
2019-02-25T08:53:10.739Z,60.10
2019-02-25T08:56:04.628Z,60.50
2019-02-25T08:58:33.723Z,59.00
2019-02-25T09:01:03.275Z,60.10
2019-02-25T09:03:32.374Z,59.10
2019-02-25T09:06:03.162Z,59.70
2019-02-25T09:08:32.256Z,59.40
2019-02-25T09:11:02.579Z,58.80
2019-02-25T09:13:32.655Z,58.80
2019-02-25T09:16:03.429Z,58.50
2019-02-25T09:18:32.538Z,58.30
2019-02-25T09:21:03.379Z,58.10
2019-02-25T09:23:32.479Z,57.40
2019-02-25T09:26:03.339Z,56.90
2019-02-25T09:28:33.011Z,56.20
2019-02-25T09:31:02.205Z,56.80
2019-02-25T09:33:31.411Z,56.90
2019-02-25T09:36:00.507Z,56.40
2019-02-25T09:38:29.922Z,56.20
2019-02-25T09:40:59.007Z,57.10
2019-02-25T09:43:28.111Z,57.00
2019-02-25T09:45:57.209Z,56.00
2019-02-25T09:48:26.320Z,55.40
2019-02-25T09:50:55.411Z,54.70
2019-02-25T09:53:24.505Z,54.70
2019-02-25T09:55:53.619Z,55.40
2019-02-25T09:58:22.713Z,53.50
2019-02-25T10:00:51.823Z,52.80
2019-02-25T10:03:20.911Z,53.10
2019-02-25T10:05:50.024Z,52.40
2019-02-25T10:08:19.115Z,52.20
2019-02-25T10:10:48.227Z,51.10
2019-02-25T10:13:17.355Z,50.00
2019-02-25T10:15:46.446Z,47.90
2019-02-25T10:18:15.547Z,46.20
2019-02-25T10:20:44.669Z,45.80
2019-02-25T10:23:13.756Z,45.20
2019-02-25T10:25:42.860Z,44.70
2019-02-25T10:28:11.970Z,44.20
2019-02-25T10:30:41.155Z,44.90
2019-02-25T10:33:10.243Z,45.30
2019-02-25T10:35:39.360Z,45.20
2019-02-25T10:38:08.454Z,45.70
2019-02-25T10:40:37.565Z,45.60
2019-02-25T10:43:06.651Z,44.80
2019-02-25T10:45:37.218Z,43.30
2019-02-25T10:48:06.576Z,42.70
2019-02-25T10:50:36.063Z,41.80
2019-02-25T10:53:06.488Z,41.00
2019-02-25T10:55:40.062Z,40.80
2019-02-25T10:58:10.999Z,38.40
2019-02-25T11:00:43.438Z,40.00
2019-02-25T11:03:13.460Z,40.90
2019-02-25T11:05:43.360Z,41.80
2019-02-25T11:08:14.115Z,41.80
2019-02-25T11:10:46.928Z,40.70
2019-02-25T11:13:15.915Z,37.80
2019-02-25T11:15:46.680Z,37.70
2019-02-25T11:18:17.466Z,37.00
2019-02-25T11:20:46.647Z,37.80
2019-02-25T11:23:17.640Z,38.70
2019-02-25T11:25:46.567Z,39.20
2019-02-25T11:28:24.883Z,39.80
2019-02-25T11:30:47.558Z,39.00
2019-02-25T11:33:17.283Z,40.50
2019-02-25T11:35:48.079Z,40.70
2019-02-25T11:38:17.401Z,40.30
2019-02-25T11:40:46.502Z,39.30
2019-02-25T11:43:16.693Z,40.00
2019-02-25T11:45:46.427Z,38.90
2019-02-25T11:48:15.543Z,38.60
2019-02-25T11:50:44.884Z,36.60
2019-02-25T11:53:14.040Z,35.70
2019-02-25T11:55:43.156Z,34.10
2019-02-25T11:58:12.595Z,32.90
2019-02-25T12:00:41.719Z,32.80
2019-02-25T12:03:10.991Z,33.00
2019-02-25T12:05:40.106Z,32.90
2019-02-25T12:08:09.199Z,32.80
2019-02-25T12:10:38.317Z,32.90
2019-02-25T12:13:07.435Z,32.90
2019-02-25T12:15:36.535Z,33.30
2019-02-25T12:18:05.654Z,33.70
2019-02-25T12:20:34.747Z,33.20
2019-02-25T12:23:04.123Z,33.30
2019-02-25T12:25:33.239Z,33.50
2019-02-25T12:28:02.799Z,33.20
2019-02-25T12:30:32.183Z,33.50
2019-02-25T12:33:02.611Z,32.70
2019-02-25T12:35:31.828Z,33.40
2019-02-25T12:38:00.923Z,33.70
2019-02-25T12:40:30.039Z,33.10
2019-02-25T12:42:59.140Z,33.40
2019-02-25T12:45:28.261Z,33.10
2019-02-25T12:47:58.624Z,33.00
2019-02-25T12:50:27.739Z,32.60
2019-02-25T12:52:56.836Z,33.20
2019-02-25T12:55:25.947Z,33.40
2019-02-25T12:57:55.072Z,33.00
2019-02-25T13:00:24.639Z,32.80
2019-02-25T13:02:53.764Z,32.90
2019-02-25T13:05:24.771Z,32.70
2019-02-25T13:07:53.891Z,32.30
2019-02-25T13:10:23.034Z,31.80
2019-02-25T13:12:52.162Z,31.40
2019-02-25T13:15:24.936Z,31.20
2019-02-25T13:17:54.339Z,31.20
2019-02-25T13:20:23.467Z,32.10
2019-02-25T13:22:52.565Z,31.20
2019-02-25T13:25:30.051Z,31.80
2019-02-25T13:28:01.325Z,33.30
2019-02-25T13:30:30.051Z,35.00
2019-02-25T13:32:59.187Z,35.10
2019-02-25T13:35:28.307Z,35.40
2019-02-25T13:37:57.432Z,38.60
2019-02-25T13:40:26.555Z,42.10
2019-02-25T13:42:55.827Z,41.20
2019-02-25T13:45:26.025Z,41.20
2019-02-25T13:47:55.274Z,40.10
2019-02-25T13:50:25.075Z,43.20
2019-02-25T13:52:54.255Z,44.60
2019-02-25T13:55:24.023Z,40.10
2019-02-25T13:57:53.739Z,39.90
2019-02-25T14:00:28.149Z,42.70
2019-02-25T14:02:58.311Z,38.30
2019-02-25T14:05:27.479Z,37.40
2019-02-25T14:07:56.603Z,35.40
2019-02-25T14:10:25.699Z,36.10
2019-02-25T14:12:55.667Z,35.30
2019-02-25T14:15:25.298Z,35.10
2019-02-25T14:17:54.475Z,35.50
2019-02-25T14:20:25.615Z,35.30
2019-02-25T14:22:54.816Z,33.30
2019-02-25T14:25:31.011Z,33.90
2019-02-25T14:28:02.572Z,34.20
2019-02-25T14:30:33.529Z,34.80
2019-02-25T14:33:01.847Z,33.30
2019-02-25T14:35:33.713Z,32.00
2019-02-25T14:38:09.719Z,32.80
2019-02-25T14:40:39.371Z,35.60
2019-02-25T14:43:10.493Z,35.50
2019-02-25T14:45:42.030Z,33.60
2019-02-25T14:48:10.776Z,34.80
2019-02-25T14:50:41.140Z,34.30
2019-02-25T14:53:14.414Z,34.30
2019-02-25T14:55:44.827Z,33.30
2019-02-25T14:58:15.510Z,31.90
2019-02-25T15:00:44.166Z,31.20
2019-02-25T15:03:13.355Z,32.00
2019-02-25T15:05:42.734Z,32.70
2019-02-25T15:08:11.843Z,31.30
2019-02-25T15:10:42.835Z,30.90
2019-02-25T15:13:12.134Z,31.20
2019-02-25T15:15:43.060Z,31.80
2019-02-25T15:18:12.061Z,32.70
2019-02-25T15:20:41.191Z,32.30
2019-02-25T15:23:12.552Z,31.50
2019-02-25T15:25:43.201Z,30.50
2019-02-25T15:28:13.636Z,30.50
2019-02-25T15:30:42.894Z,31.10
2019-02-25T15:33:12.143Z,31.90
2019-02-25T15:35:42.114Z,32.70
2019-02-25T15:38:12.086Z,34.60
2019-02-25T15:40:41.287Z,34.20
2019-02-25T15:43:13.346Z,35.30
2019-02-25T15:45:43.771Z,36.70
2019-02-25T15:48:18.346Z,35.30
2019-02-25T15:50:50.689Z,34.80
2019-02-25T15:53:19.611Z,34.30
2019-02-25T15:55:48.711Z,34.40
2019-02-25T15:58:18.163Z,34.20
2019-02-25T16:00:47.459Z,34.00
2019-02-25T16:03:20.285Z,34.50
2019-02-25T16:05:47.499Z,35.00
2019-02-25T16:08:19.038Z,34.80
2019-02-25T16:10:49.569Z,35.90
2019-02-25T16:13:18.443Z,35.50
2019-02-25T16:15:47.623Z,36.20
2019-02-25T16:18:16.734Z,38.50
2019-02-25T16:20:46.274Z,37.30
2019-02-25T16:23:15.867Z,37.80
2019-02-25T16:25:46.214Z,38.90
2019-02-25T16:28:17.482Z,40.10
2019-02-25T16:30:47.418Z,40.90
2019-02-25T16:33:17.700Z,42.00
2019-02-25T16:35:46.885Z,40.50
2019-02-25T16:38:16.179Z,43.20
2019-02-25T16:40:45.298Z,43.70
2019-02-25T16:43:14.491Z,44.10
2019-02-25T16:45:46.457Z,44.40
2019-02-25T16:48:14.816Z,45.70
2019-02-25T16:50:46.314Z,46.20
2019-02-25T16:53:16.090Z,46.80
2019-02-25T16:55:47.018Z,49.10
2019-02-25T16:58:16.612Z,49.40
2019-02-25T17:00:45.788Z,49.40
2019-02-25T17:03:16.084Z,48.70
2019-02-25T17:05:47.689Z,49.20
2019-02-25T17:08:17.806Z,49.70
2019-02-25T17:10:48.975Z,50.20
2019-02-25T17:13:17.805Z,50.60
2019-02-25T17:15:46.920Z,50.70
2019-02-25T17:18:16.112Z,51.00
2019-02-25T17:20:49.704Z,51.30
2019-02-25T17:23:17.640Z,51.30
2019-02-25T17:25:46.783Z,51.40
2019-02-25T17:28:18.069Z,51.70
2019-02-25T17:30:47.404Z,51.80
2019-02-25T17:33:17.529Z,52.20
2019-02-25T17:35:47.618Z,52.40
2019-02-25T17:38:18.119Z,52.90
2019-02-25T17:40:48.393Z,53.10
2019-02-25T17:43:18.427Z,53.00
2019-02-25T17:45:48.340Z,53.70
2019-02-25T17:48:18.680Z,53.90
2019-02-25T17:50:48.317Z,54.10
2019-02-25T17:53:17.568Z,53.90
2019-02-25T17:55:48.854Z,53.80
2019-02-25T17:58:19.328Z,54.30
2019-02-25T18:00:57.063Z,54.80
2019-02-25T18:03:26.936Z,55.20
2019-02-25T18:05:56.902Z,55.00
2019-02-25T18:08:28.078Z,55.20
2019-02-25T18:10:58.087Z,56.20
2019-02-25T18:13:28.137Z,55.70
2019-02-25T18:15:58.369Z,55.90
2019-02-25T18:18:27.468Z,55.50
2019-02-25T18:20:56.632Z,56.10
2019-02-25T18:23:25.740Z,55.90
2019-02-25T18:25:58.105Z,55.90
2019-02-25T18:28:25.968Z,56.00
2019-02-25T18:30:55.403Z,56.10
2019-02-25T18:33:26.438Z,56.60
2019-02-25T18:35:55.363Z,57.20
2019-02-25T18:38:25.150Z,57.60
2019-02-25T18:40:54.995Z,57.90
2019-02-25T18:43:24.731Z,57.90
2019-02-25T18:45:56.244Z,57.30
2019-02-25T18:48:27.348Z,57.90
2019-02-25T18:50:58.964Z,58.40
2019-02-25T18:53:27.540Z,58.70
2019-02-25T18:55:56.831Z,59.40
2019-02-25T18:58:26.423Z,59.70
2019-02-25T19:00:57.202Z,60.00
2019-02-25T19:03:26.947Z,59.90
2019-02-25T19:05:57.461Z,60.00
2019-02-25T19:08:28.948Z,60.30
2019-02-25T19:10:58.256Z,60.10
2019-02-25T19:13:28.240Z,59.80
2019-02-25T19:15:59.290Z,60.20
2019-02-25T19:18:29.433Z,59.90
2019-02-25T19:21:01.895Z,59.80
2019-02-25T19:23:33.092Z,60.10
2019-02-25T19:26:01.895Z,60.20
2019-02-25T19:28:31.124Z,60.50
2019-02-25T19:31:00.295Z,60.60
2019-02-25T19:33:31.211Z,60.60
2019-02-25T19:36:01.263Z,60.70
2019-02-25T19:38:34.061Z,60.30
2019-02-25T19:41:02.170Z,60.50
2019-02-25T19:43:31.895Z,60.60
2019-02-25T19:46:01.825Z,60.50
2019-02-25T19:48:33.480Z,60.80
2019-02-25T19:51:04.235Z,61.50
2019-02-25T19:53:34.231Z,61.80
2019-02-25T19:56:04.532Z,62.70
2019-02-25T19:58:35.882Z,63.10
2019-02-25T20:01:06.105Z,63.70
2019-02-25T20:03:37.410Z,63.70
2019-02-25T20:06:11.203Z,63.70
2019-02-25T20:08:38.215Z,63.70
2019-02-25T20:11:09.238Z,63.80
2019-02-25T20:13:38.163Z,63.70
2019-02-25T20:16:08.226Z,63.70
2019-02-25T20:18:39.838Z,63.90
2019-02-25T20:21:09.002Z,64.00
2019-02-25T20:23:38.103Z,64.10
2019-02-25T20:26:07.256Z,64.40
2019-02-25T20:28:36.395Z,64.20
2019-02-25T20:31:06.162Z,64.30
2019-02-25T20:33:37.521Z,64.50
2019-02-25T20:36:07.143Z,64.60
2019-02-25T20:38:37.272Z,65.20
2019-02-25T20:41:07.082Z,64.60
2019-02-25T20:43:36.207Z,64.80
2019-02-25T20:46:06.020Z,65.10
2019-02-25T20:48:35.640Z,65.10
2019-02-25T20:51:06.741Z,65.10
2019-02-25T20:53:37.705Z,65.50
2019-02-25T20:56:06.433Z,65.40
2019-02-25T20:58:36.119Z,65.60
2019-02-25T21:01:09.213Z,65.70
2019-02-25T21:03:41.502Z,65.70
2019-02-25T21:06:09.828Z,65.80
2019-02-25T21:08:40.063Z,65.60
2019-02-25T21:11:11.176Z,65.50
2019-02-25T21:13:40.431Z,66.20
2019-02-25T21:16:10.514Z,66.40
2019-02-25T21:18:40.352Z,66.20
2019-02-25T21:21:11.859Z,66.40
2019-02-25T21:23:40.367Z,66.70
2019-02-25T21:26:11.406Z,66.60
2019-02-25T21:28:42.657Z,66.60
2019-02-25T21:31:13.928Z,66.60
2019-02-25T21:33:44.835Z,66.60
2019-02-25T21:36:12.745Z,66.60
2019-02-25T21:38:42.935Z,66.90
2019-02-25T21:41:13.703Z,67.70
2019-02-25T21:43:43.544Z,68.00
2019-02-25T21:46:17.859Z,67.80
2019-02-25T21:48:46.142Z,67.70
2019-02-25T21:51:15.703Z,67.60
2019-02-25T21:53:44.903Z,67.20
2019-02-25T21:56:14.029Z,67.20
2019-02-25T21:58:45.101Z,67.20
2019-02-25T22:01:13.971Z,67.50
2019-02-25T22:03:45.911Z,67.40
2019-02-25T22:06:13.915Z,67.70
2019-02-25T22:08:43.011Z,67.90
2019-02-25T22:11:15.072Z,68.40
2019-02-25T22:13:42.939Z,68.30
2019-02-25T22:16:12.059Z,68.00
2019-02-25T22:18:41.177Z,66.80
2019-02-25T22:21:12.227Z,66.20
2019-02-25T22:23:41.087Z,66.50
2019-02-25T22:26:10.183Z,67.10
2019-02-25T22:28:39.523Z,68.10
2019-02-25T22:31:10.976Z,67.40
2019-02-25T22:33:39.516Z,67.10
2019-02-25T22:36:08.617Z,66.90
2019-02-25T22:38:37.739Z,67.00
2019-02-25T22:41:06.879Z,67.20
2019-02-25T22:43:36.893Z,67.20
2019-02-25T22:46:08.978Z,67.40
2019-02-25T22:48:39.734Z,67.70
2019-02-25T22:51:08.734Z,67.50
2019-02-25T22:53:37.855Z,67.50
2019-02-25T22:56:11.389Z,67.40
2019-02-25T22:58:39.032Z,67.70
2019-02-25T23:01:14.849Z,67.90
2019-02-25T23:03:44.944Z,67.60
2019-02-25T23:06:13.550Z,67.70
2019-02-25T23:08:44.298Z,68.10
2019-02-25T23:11:16.736Z,68.00
2019-02-25T23:13:47.883Z,68.60
